Terminal Aerodrome Forecast
Issued by NWS Cleveland, OH

Home | Current Version | Previous Version | Graphics & Text | Print | Product List | Glossary Off
Versions: 1 2 3 4 5 6 7 8 9 10 11 12 13 14 15 16 17 18 19 20 21 22

000
FTUS41 KCLE 190534
TAFYNG
TAF
KYNG 190534Z 1906/2006 30025G35KT 5SM -SHRASN OVC008
     FM190900 29020G30KT P6SM VCSH OVC010
     FM191200 29015G25KT P6SM -SHRASN OVC015
     FM191300 29015G25KT P6SM VCSH OVC025
     FM191700 28015G25KT P6SM OVC025
     FM200000 28012KT P6SM OVC025=

USA.gov is the U.S. government's official web portal to all federal, state and local government web resources and services.